Time;durP1;ratioP1;P1;durP2;ratioP2;P2;SDS_P1;SDS_P2;PMS_P1;PMS_P2;Temp;Humidity;BMP_temperature;BMP_pressure;BME280_temperature;BME280_humidity;BME280_pressure;Samples;Min_cycle;Max_cycle;Signal;HPM_P1;HPM_P2
2023/06/18 00:02:18;;;;;;;9.40;8.10;;;;;;;15.87;60.35;98000.78;4994162;28;20121;-77
2023/06/18 00:04:43;;;;;;;11.70;9.25;;;;;;;15.80;60.57;98003.03;4992521;28;20029;-77
2023/06/18 00:07:09;;;;;;;9.40;8.50;;;;;;;15.94;60.14;98006.72;5021480;28;20159;-78
2023/06/18 00:09:34;;;;;;;11.90;8.32;;;;;;;15.94;59.88;97995.06;5023155;28;20030;-77
2023/06/18 00:12:00;;;;;;;13.02;8.65;;;;;;;15.84;60.40;98002.19;5010410;28;20080;-78
2023/06/18 00:14:25;;;;;;;10.50;9.20;;;;;;;15.44;61.79;98010.59;5008426;28;20116;-77
2023/06/18 00:16:52;;;;;;;9.70;8.68;;;;;;;15.49;61.59;98007.03;5003849;28;20037;-78
2023/06/18 00:19:17;;;;;;;10.98;8.65;;;;;;;15.24;62.23;98011.47;5005337;28;20026;-77
2023/06/18 00:21:43;;;;;;;10.90;8.57;;;;;;;15.56;61.51;98012.97;4994311;28;20507;-77
2023/06/18 00:24:08;;;;;;;11.25;9.00;;;;;;;15.69;61.10;98017.75;5008024;28;20036;-77
2023/06/18 00:26:33;;;;;;;10.75;9.13;;;;;;;15.61;61.19;98015.66;5003628;28;20044;-77
2023/06/18 00:29:00;;;;;;;9.57;8.57;;;;;;;15.56;61.49;98011.06;5022982;28;20113;-77
2023/06/18 00:31:25;;;;;;;11.75;9.27;;;;;;;15.48;61.63;98011.66;5010155;28;20038;-79
2023/06/18 00:33:51;;;;;;;13.35;8.45;;;;;;;15.54;61.51;98012.44;5007907;28;20025;-75
2023/06/18 00:36:19;;;;;;;9.43;8.48;;;;;;;15.62;61.70;98003.69;4986936;28;20040;-75
2023/06/18 00:38:46;;;;;;;12.40;8.98;;;;;;;15.63;61.04;98000.72;5016463;28;20025;-75
2023/06/18 00:41:12;;;;;;;10.23;9.02;;;;;;;15.61;61.47;98002.09;4996602;28;20033;-78
2023/06/18 00:43:38;;;;;;;11.48;9.15;;;;;;;15.51;61.85;98005.66;4996252;28;20543;-78
2023/06/18 00:46:04;;;;;;;9.07;8.18;;;;;;;15.23;62.63;98007.16;5027285;28;20077;-78
2023/06/18 00:48:31;;;;;;;10.23;9.13;;;;;;;14.95;63.74;98010.53;4991019;28;20395;-77
2023/06/18 00:50:57;;;;;;;11.63;9.30;;;;;;;14.77;64.22;98008.38;5027492;28;20048;-77
2023/06/18 00:53:22;;;;;;;11.80;8.75;;;;;;;14.56;63.52;98006.84;4987265;28;20397;-77
2023/06/18 00:55:48;;;;;;;10.13;8.73;;;;;;;14.31;64.24;98001.44;5009643;28;20065;-76
2023/06/18 00:58:15;;;;;;;9.40;8.40;;;;;;;14.18;64.89;98010.09;5008519;28;20052;-77
2023/06/18 01:00:41;;;;;;;10.25;9.15;;;;;;;13.83;65.42;98013.63;5003158;28;20064;-77
2023/06/18 01:03:17;;;;;;;10.30;9.20;;;;;;;13.93;65.02;98015.53;5015501;28;20021;-74
2023/06/18 01:05:48;;;;;;;11.45;9.60;;;;;;;14.29;64.42;98004.41;4984432;28;20087;-77
2023/06/18 01:08:14;;;;;;;11.20;9.88;;;;;;;14.47;63.65;98011.16;5014613;28;20044;-76
2023/06/18 01:10:40;;;;;;;13.15;9.70;;;;;;;14.25;63.96;98013.34;5004356;28;20025;-76
2023/06/18 01:13:14;;;;;;;12.50;8.98;;;;;;;13.67;65.94;98010.09;4986249;28;20089;-78
2023/06/18 01:15:40;;;;;;;10.10;8.98;;;;;;;13.52;66.63;98023.59;5006247;28;20124;-78
2023/06/18 01:18:07;;;;;;;10.93;8.95;;;;;;;13.76;66.01;98022.00;4993303;28;20069;-78
2023/06/18 01:20:40;;;;;;;14.48;10.23;;;;;;;13.97;65.38;98022.03;4989279;28;20182;-76
2023/06/18 01:23:14;;;;;;;13.40;10.25;;;;;;;13.62;65.80;98020.09;4984039;28;20042;-76
2023/06/18 01:25:39;;;;;;;11.70;9.95;;;;;;;13.49;66.43;98026.81;5011243;28;20080;-74
2023/06/18 01:28:07;;;;;;;13.88;10.10;;;;;;;13.78;65.83;98025.25;5016623;28;20060;-73
2023/06/18 01:30:36;;;;;;;11.98;9.95;;;;;;;13.81;66.21;98024.72;5015601;28;20091;-75
2023/06/18 01:33:03;;;;;;;10.25;9.15;;;;;;;13.95;65.14;98029.59;4985718;28;20024;-75
2023/06/18 01:35:29;;;;;;;14.30;9.68;;;;;;;13.88;65.69;98030.66;5011578;28;20099;-75
2023/06/18 01:38:25;;;;;;;11.27;9.75;;;;;;;13.81;65.52;98027.44;4983122;28;20022;-76
2023/06/18 01:40:57;;;;;;;10.25;8.63;;;;;;;14.06;64.90;98020.41;5012408;28;20033;-75
2023/06/18 01:43:29;;;;;;;12.40;9.50;;;;;;;13.81;65.96;98026.63;4994939;28;20488;-75
2023/06/18 01:46:14;;;;;;;12.23;9.52;;;;;;;13.83;66.29;98025.28;5008506;28;20077;-75
2023/06/18 01:49:04;;;;;;;10.98;9.20;;;;;;;14.05;65.21;98024.19;5006950;28;20029;-75
2023/06/18 01:51:31;;;;;;;11.25;9.13;;;;;;;14.10;66.03;98022.28;5026273;28;20453;-76
2023/06/18 01:53:57;;;;;;;11.00;9.70;;;;;;;14.23;65.62;98023.66;4999211;28;20033;-75
2023/06/18 01:56:23;;;;;;;9.85;8.85;;;;;;;14.17;65.54;98024.72;4987096;28;20038;-74
2023/06/18 01:58:50;;;;;;;11.43;9.73;;;;;;;14.18;65.85;98023.66;5032166;28;20390;-75
2023/06/18 02:01:15;;;;;;;12.57;9.43;;;;;;;14.20;65.64;98025.00;5006417;28;20080;-75
2023/06/18 02:03:41;;;;;;;12.27;9.45;;;;;;;14.13;66.45;98020.94;5000224;28;20025;-75
2023/06/18 02:06:21;;;;;;;10.77;9.60;;;;;;;14.04;66.25;98022.56;5064612;28;20439;-77
2023/06/18 02:08:46;;;;;;;11.85;9.15;;;;;;;14.05;66.63;98029.63;5027669;28;20045;-76
2023/06/18 02:11:11;;;;;;;10.25;9.13;;;;;;;14.08;66.37;98023.63;5041803;28;20032;-76
2023/06/18 02:13:37;;;;;;;10.35;9.25;;;;;;;14.08;65.79;98019.03;5017787;28;20123;-76
2023/06/18 02:16:02;;;;;;;10.63;9.55;;;;;;;13.92;66.56;98032.84;5030956;28;20024;-77
2023/06/18 02:18:31;;;;;;;10.82;9.40;;;;;;;13.77;67.76;98045.28;5025885;28;20088;-76
2023/06/18 02:20:56;;;;;;;10.73;9.63;;;;;;;13.90;66.96;98043.13;5023832;28;20029;-76
2023/06/18 02:23:22;;;;;;;10.27;9.13;;;;;;;13.86;66.80;98032.84;5016991;28;20037;-76
2023/06/18 02:25:49;;;;;;;13.98;9.93;;;;;;;13.79;67.09;98026.88;5018731;28;20024;-76
2023/06/18 02:28:15;;;;;;;10.88;9.73;;;;;;;13.90;66.39;98037.72;5040975;28;20042;-76
2023/06/18 02:30:40;;;;;;;12.82;9.30;;;;;;;13.88;66.52;98036.06;5039806;28;20108;-76
2023/06/18 02:33:06;;;;;;;11.93;9.77;;;;;;;13.72;66.80;98022.81;5034139;28;20033;-76
2023/06/18 02:35:31;;;;;;;11.43;9.73;;;;;;;13.40;68.35;98044.66;5019780;28;20029;-76
2023/06/18 02:37:57;;;;;;;11.60;9.77;;;;;;;13.18;68.74;98035.94;5026258;28;20038;-76
2023/06/18 02:40:23;;;;;;;11.35;10.15;;;;;;;13.51;68.14;98030.06;5023759;28;20253;-77
2023/06/18 02:42:48;;;;;;;11.18;9.95;;;;;;;13.63;67.50;98027.94;5018301;28;20124;-76
2023/06/18 02:45:18;;;;;;;10.52;9.43;;;;;;;13.61;67.75;98027.38;5019488;28;20018;-77
2023/06/18 02:47:47;;;;;;;10.93;9.60;;;;;;;13.72;66.87;98026.31;5024174;28;20072;-76
2023/06/18 02:50:14;;;;;;;11.32;10.02;;;;;;;14.01;66.15;98023.91;5023878;28;20034;-76
2023/06/18 02:52:40;;;;;;;11.32;10.13;;;;;;;13.27;69.08;98026.22;5047193;28;20033;-76
2023/06/18 02:55:07;;;;;;;14.07;10.52;;;;;;;12.99;69.20;98022.03;5017452;28;20491;-77
2023/06/18 02:57:36;;;;;;;12.60;10.95;;;;;;;13.22;68.91;98015.38;5040337;28;20033;-76
2023/06/18 03:00:09;;;;;;;14.15;10.77;;;;;;;13.43;68.61;98027.91;5040267;28;20031;-77
2023/06/18 03:02:35;;;;;;;12.50;11.00;;;;;;;13.31;68.61;98024.59;5031172;28;20029;-77
2023/06/18 03:05:03;;;;;;;13.63;11.25;;;;;;;13.17;68.77;98020.78;5013243;28;20120;-75
2023/06/18 03:07:28;;;;;;;12.45;10.40;;;;;;;13.22;68.85;98020.78;5035582;28;20033;-75
2023/06/18 03:09:54;;;;;;;11.05;9.95;;;;;;;13.32;68.50;98022.72;5033655;28;20033;-76
2023/06/18 03:12:20;;;;;;;13.20;10.88;;;;;;;13.20;68.89;98017.53;5018395;28;20116;-76
2023/06/18 03:14:46;;;;;;;15.57;12.45;;;;;;;12.74;70.23;98030.00;5033691;28;20021;-77
2023/06/18 03:17:11;;;;;;;13.93;10.95;;;;;;;13.06;69.06;98024.53;5037233;28;20034;-77
2023/06/18 03:19:37;;;;;;;13.60;12.20;;;;;;;12.85;69.95;98036.28;5020789;28;20021;-77
2023/06/18 03:22:04;;;;;;;14.88;13.18;;;;;;;12.54;71.85;98034.47;5009872;28;20048;-77
2023/06/18 03:24:32;;;;;;;11.82;10.65;;;;;;;12.91;70.30;98035.22;5010404;28;20163;-77
2023/06/18 03:26:58;;;;;;;12.85;11.57;;;;;;;12.79;69.97;98034.66;5005161;28;20041;-77
2023/06/18 03:29:25;;;;;;;14.35;11.98;;;;;;;12.83;70.89;98041.16;5019827;28;20037;-77
2023/06/18 03:31:53;;;;;;;13.65;11.38;;;;;;;12.78;71.01;98035.72;5009299;28;20123;-77
2023/06/18 03:34:20;;;;;;;12.43;10.68;;;;;;;13.10;69.36;98039.13;5026268;28;20061;-77
2023/06/18 03:36:46;;;;;;;12.40;10.88;;;;;;;13.21;68.80;98029.97;5005306;28;20045;-77
2023/06/18 03:39:12;;;;;;;13.32;11.15;;;;;;;13.38;68.89;98033.28;5003457;28;20112;-77
2023/06/18 03:41:38;;;;;;;12.35;11.05;;;;;;;13.36;68.86;98032.75;5044841;28;20114;-76
2023/06/18 03:44:04;;;;;;;11.95;10.45;;;;;;;13.32;68.58;98028.94;5032357;28;20025;-76
2023/06/18 03:46:30;;;;;;;13.13;11.70;;;;;;;13.39;69.85;98032.22;5024413;28;20038;-76
2023/06/18 03:48:56;;;;;;;17.02;13.02;;;;;;;13.65;70.00;98036.59;5011820;28;20049;-75
2023/06/18 03:51:22;;;;;;;15.20;13.60;;;;;;;13.58;70.29;98041.44;5033002;28;20449;-76
2023/06/18 03:53:48;;;;;;;14.30;12.82;;;;;;;13.71;69.91;98042.84;5013914;28;20021;-76
2023/06/18 03:56:14;;;;;;;14.77;13.02;;;;;;;13.82;69.20;98037.16;4996966;28;20116;-76
2023/06/18 03:58:39;;;;;;;14.85;12.48;;;;;;;13.94;68.86;98038.78;5030327;28;20049;-76
2023/06/18 04:01:07;;;;;;;15.43;13.38;;;;;;;13.96;69.08;98028.50;4992066;28;20132;-77
2023/06/18 04:03:33;;;;;;;15.13;13.18;;;;;;;13.88;69.14;98036.06;5028045;28;20108;-75
2023/06/18 04:05:58;;;;;;;15.55;12.65;;;;;;;13.90;69.34;98040.41;5008145;28;20114;-77
2023/06/18 04:08:24;;;;;;;16.25;14.20;;;;;;;13.91;69.52;98047.47;5010032;28;20159;-76
2023/06/18 04:10:50;;;;;;;17.27;13.02;;;;;;;14.09;68.80;98046.94;5004525;28;20475;-76
2023/06/18 04:13:16;;;;;;;14.60;13.10;;;;;;;14.01;69.32;98039.34;5031588;28;20025;-75
2023/06/18 04:15:43;;;;;;;14.90;13.38;;;;;;;14.09;68.81;98046.94;5007649;28;20060;-76
2023/06/18 04:18:09;;;;;;;13.63;12.23;;;;;;;14.05;69.98;98051.28;5026306;28;20056;-76
2023/06/18 04:20:35;;;;;;;15.43;13.82;;;;;;;14.34;68.46;98046.97;5021749;28;20068;-77
2023/06/18 04:23:00;;;;;;;14.88;13.05;;;;;;;14.46;67.96;98052.91;5015997;28;20021;-77
2023/06/18 04:25:27;;;;;;;14.30;12.32;;;;;;;14.61;67.67;98050.19;5007977;28;20373;-77
2023/06/18 04:27:56;;;;;;;15.45;12.02;;;;;;;14.80;67.44;98053.13;4993933;28;20026;-76
2023/06/18 04:30:22;;;;;;;14.52;13.02;;;;;;;14.75;67.94;98047.72;5005835;28;20133;-76
2023/06/18 04:32:48;;;;;;;13.73;11.77;;;;;;;14.87;67.43;98054.47;5019044;28;20133;-77
2023/06/18 04:35:14;;;;;;;14.65;12.73;;;;;;;14.89;67.70;98049.56;5006393;28;20030;-77
2023/06/18 04:37:40;;;;;;;14.93;12.60;;;;;;;14.87;67.96;98046.31;5009772;28;20047;-76
2023/06/18 04:40:08;;;;;;;13.43;12.10;;;;;;;15.12;67.00;98048.94;5022885;28;20507;-76
2023/06/18 04:42:35;;;;;;;13.95;11.70;;;;;;;15.36;65.35;98051.03;5038842;28;20503;-76
2023/06/18 04:45:04;;;;;;;15.38;12.18;;;;;;;15.34;65.46;98042.34;5025332;28;20026;-76
2023/06/18 04:47:32;;;;;;;14.77;11.80;;;;;;;15.46;65.95;98057.25;4995549;28;20466;-76
2023/06/18 04:49:58;;;;;;;13.23;11.82;;;;;;;15.56;65.08;98057.22;4991587;28;20048;-76
2023/06/18 04:52:24;;;;;;;13.82;11.70;;;;;;;15.43;66.09;98051.53;5012190;28;20034;-75
2023/06/18 04:54:52;;;;;;;14.88;11.80;;;;;;;15.35;67.55;98054.84;5024218;28;20034;-74
2023/06/18 04:57:20;;;;;;;13.50;12.07;;;;;;;14.88;70.05;98061.53;5004338;28;20055;-75
2023/06/18 04:59:48;;;;;;;13.77;11.85;;;;;;;14.72;70.20;98068.06;5034910;28;20046;-75
2023/06/18 05:02:14;;;;;;;14.50;13.00;;;;;;;14.60;70.89;98078.38;5003673;28;20033;-73
2023/06/18 05:04:40;;;;;;;13.65;12.25;;;;;;;14.50;70.26;98070.25;5030936;28;20083;-74
2023/06/18 05:07:06;;;;;;;14.80;13.00;;;;;;;14.57;70.60;98072.69;5019160;28;20116;-75
2023/06/18 05:09:34;;;;;;;13.85;12.43;;;;;;;14.65;70.43;98067.53;5000027;28;20124;-75
2023/06/18 05:11:59;;;;;;;13.57;12.18;;;;;;;15.26;68.55;98070.09;5026938;28;20495;-75
2023/06/18 05:14:27;;;;;;;13.90;12.25;;;;;;;15.53;67.03;98065.09;5023571;28;20079;-76
2023/06/18 05:16:53;;;;;;;14.07;11.75;;;;;;;15.84;66.22;98074.72;5030947;28;20025;-76
2023/06/18 05:19:18;;;;;;;15.07;12.35;;;;;;;15.92;65.63;98070.59;5003785;28;20526;-77
2023/06/18 05:21:43;;;;;;;13.77;12.20;;;;;;;15.70;65.78;98073.69;4993439;28;20052;-76
2023/06/18 05:24:10;;;;;;;15.70;12.43;;;;;;;15.66;66.69;98078.06;5006625;28;20055;-76
2023/06/18 05:26:35;;;;;;;13.65;12.20;;;;;;;15.42;68.92;98071.63;5017718;28;20044;-76
2023/06/18 05:29:01;;;;;;;14.73;11.85;;;;;;;15.66;68.25;98078.06;5003195;28;20034;-76
2023/06/18 05:31:28;;;;;;;13.77;12.27;;;;;;;15.66;66.29;98083.50;5000142;28;20108;-76
2023/06/18 05:33:57;;;;;;;14.77;11.75;;;;;;;15.64;68.33;98074.81;5018345;28;20033;-76
2023/06/18 05:36:24;;;;;;;13.25;11.55;;;;;;;16.07;65.36;98084.06;5097952;22;20041;-75
2023/06/18 05:38:50;;;;;;;13.68;12.15;;;;;;;16.39;63.50;98082.44;5000130;28;20038;-76
2023/06/18 05:41:17;;;;;;;13.45;11.40;;;;;;;16.84;62.59;98075.00;4985830;28;20477;-76
2023/06/18 05:43:42;;;;;;;13.52;11.75;;;;;;;16.64;62.50;98083.38;4967613;28;20070;-77
2023/06/18 05:46:08;;;;;;;15.65;11.15;;;;;;;16.38;63.47;98072.66;4962052;28;20357;-76
2023/06/18 05:48:34;;;;;;;14.65;11.52;;;;;;;16.63;63.67;98092.63;4979637;28;20501;-76
2023/06/18 05:51:09;;;;;;;15.60;11.93;;;;;;;16.66;63.64;98095.59;4967529;28;20034;-76
2023/06/18 05:53:34;;;;;;;13.02;11.68;;;;;;;16.64;64.29;98089.59;4968571;28;20038;-76
2023/06/18 05:56:00;;;;;;;14.82;10.90;;;;;;;16.78;63.83;98097.94;4984150;28;20022;-77
2023/06/18 05:58:25;;;;;;;13.80;11.13;;;;;;;16.74;63.84;98099.56;4954099;28;20039;-74
2023/06/18 06:00:51;;;;;;;12.52;11.23;;;;;;;16.93;63.43;98092.31;4971812;28;20045;-77
2023/06/18 06:03:17;;;;;;;13.43;10.93;;;;;;;16.91;63.11;98083.63;4955302;28;20935;-76
2023/06/18 06:05:42;;;;;;;12.98;10.82;;;;;;;17.23;62.12;98097.44;4961836;28;20393;-76
2023/06/18 06:08:10;;;;;;;12.90;11.18;;;;;;;17.41;62.43;98093.16;4962092;28;20054;-76
2023/06/18 06:10:37;;;;;;;12.52;11.23;;;;;;;17.37;61.39;98095.63;4968113;28;20027;-76
2023/06/18 06:13:03;;;;;;;12.00;10.57;;;;;;;17.06;61.19;98103.31;4967845;28;20382;-76
2023/06/18 06:15:29;;;;;;;14.48;11.68;;;;;;;17.31;60.61;98096.81;4962540;28;20435;-76
2023/06/18 06:17:55;;;;;;;13.48;10.55;;;;;;;17.54;60.52;98101.47;4961398;28;20035;-76
2023/06/18 06:20:20;;;;;;;14.40;10.35;;;;;;;17.63;59.43;98104.34;4955418;28;20358;-73
2023/06/18 06:22:46;;;;;;;11.80;10.30;;;;;;;17.84;59.58;98101.06;4968812;28;20065;-75
2023/06/18 06:25:12;;;;;;;11.98;10.48;;;;;;;17.44;59.77;98098.00;4984923;28;20054;-77
2023/06/18 06:27:38;;;;;;;12.05;10.52;;;;;;;17.97;58.38;98101.44;4985568;28;20192;-76
2023/06/18 06:30:05;;;;;;;13.25;10.52;;;;;;;17.73;59.78;98096.03;4962102;28;20054;-76
2023/06/18 06:32:31;;;;;;;13.45;10.88;;;;;;;17.71;59.84;98104.50;4977495;28;20056;-74
2023/06/18 06:34:56;;;;;;;14.80;10.85;;;;;;;17.73;58.95;98096.88;4977861;28;20037;-75
2023/06/18 06:37:22;;;;;;;12.77;11.13;;;;;;;18.01;59.04;98102.47;4961591;28;20128;-77
2023/06/18 06:39:48;;;;;;;12.45;11.15;;;;;;;18.01;58.92;98102.47;4974790;28;20023;-76
2023/06/18 06:42:15;;;;;;;12.88;10.73;;;;;;;18.18;57.76;98102.78;4977807;28;20046;-77
2023/06/18 06:44:45;;;;;;;12.27;10.98;;;;;;;18.27;58.68;98101.81;4983003;28;20031;-77
2023/06/18 06:47:24;;;;;;;12.55;11.25;;;;;;;18.36;58.54;98101.94;4970597;28;20035;-76
2023/06/18 06:50:17;;;;;;;13.90;11.18;;;;;;;18.86;57.14;98095.66;4958957;28;20066;-76
2023/06/18 06:52:56;;;;;;;13.25;11.85;;;;;;;18.97;57.31;98105.28;4967752;28;20120;-76
2023/06/18 06:55:21;;;;;;;12.38;11.07;;;;;;;18.94;57.42;98100.44;4945689;28;20039;-76
2023/06/18 06:57:46;;;;;;;13.70;11.20;;;;;;;19.44;55.75;98098.66;4958749;28;20064;-77
2023/06/18 07:00:12;;;;;;;14.82;12.07;;;;;;;19.68;55.66;98095.72;4971616;28;20034;-77
2023/06/18 07:02:38;;;;;;;12.88;10.93;;;;;;;20.06;54.60;98091.59;4966489;28;20198;-77
2023/06/18 07:05:06;;;;;;;12.40;11.20;;;;;;;19.65;55.31;98099.09;4964657;28;20041;-77
2023/06/18 07:07:31;;;;;;;12.02;10.75;;;;;;;19.46;55.48;98095.66;4978126;28;20030;-75
2023/06/18 07:09:57;;;;;;;11.85;10.60;;;;;;;19.94;55.23;98091.31;4979196;28;20034;-74
2023/06/18 07:12:22;;;;;;;13.40;11.18;;;;;;;19.91;55.16;98092.75;4974505;28;20539;-74
2023/06/18 07:14:47;;;;;;;13.52;11.68;;;;;;;19.96;56.26;98100.03;4973884;28;20130;-73
2023/06/18 07:17:13;;;;;;;13.95;10.80;;;;;;;20.00;55.57;98107.31;4982366;28;20084;-74
2023/06/18 07:19:38;;;;;;;12.27;11.07;;;;;;;20.22;53.78;98106.56;4980855;28;20118;-74
2023/06/18 07:22:03;;;;;;;13.57;11.25;;;;;;;20.02;54.37;98098.00;4974727;28;20392;-76
2023/06/18 07:24:29;;;;;;;12.63;11.13;;;;;;;19.93;54.00;98098.72;4987996;28;20034;-76
2023/06/18 07:26:55;;;;;;;12.15;10.80;;;;;;;19.96;53.85;98094.56;4981990;28;20034;-76
2023/06/18 07:29:20;;;;;;;12.70;11.40;;;;;;;20.30;53.08;98092.19;4963110;28;20422;-77
2023/06/18 07:31:46;;;;;;;13.25;10.77;;;;;;;20.09;53.35;98101.13;4974343;28;20105;-76
2023/06/18 07:34:11;;;;;;;12.70;11.02;;;;;;;20.28;53.40;98097.13;4988131;28;20104;-76
2023/06/18 07:36:37;;;;;;;13.48;11.13;;;;;;;20.40;53.55;98097.38;4965223;28;20502;-76
2023/06/18 07:39:02;;;;;;;13.35;11.43;;;;;;;20.32;53.12;98098.16;4963442;28;20049;-76
2023/06/18 07:41:27;;;;;;;12.40;11.10;;;;;;;20.42;52.72;98092.41;4974169;28;20040;-76
2023/06/18 07:43:53;;;;;;;12.50;11.20;;;;;;;20.97;52.09;98086.66;4986405;28;20066;-76
2023/06/18 07:46:19;;;;;;;11.95;10.75;;;;;;;20.87;52.53;98092.38;4957780;28;20461;-76
2023/06/18 07:48:45;;;;;;;11.88;10.68;;;;;;;21.20;51.20;98082.78;4986941;28;20034;-77
2023/06/18 07:51:10;;;;;;;13.15;10.55;;;;;;;21.04;51.26;98087.00;4957727;28;20485;-77
2023/06/18 07:53:35;;;;;;;12.60;10.82;;;;;;;20.78;52.22;98088.78;4969993;28;20042;-77
2023/06/18 07:56:01;;;;;;;14.05;11.32;;;;;;;21.30;50.40;98082.50;4980756;28;20022;-77
2023/06/18 07:58:26;;;;;;;14.30;10.52;;;;;;;21.32;49.91;98077.50;4963934;28;20039;-78
2023/06/18 08:00:51;;;;;;;13.80;11.07;;;;;;;21.51;49.72;98080.81;4958082;28;20041;-77
2023/06/18 08:03:17;;;;;;;12.52;10.45;;;;;;;21.62;49.84;98082.13;4973436;28;20054;-77
2023/06/18 08:05:43;;;;;;;15.55;11.18;;;;;;;21.73;50.02;98088.91;4986636;28;20102;-77
2023/06/18 08:08:08;;;;;;;12.00;10.70;;;;;;;21.64;49.58;98079.84;4986972;28;20481;-77
2023/06/18 08:10:33;;;;;;;14.10;10.90;;;;;;;21.75;49.91;98080.38;4967640;28;20109;-77
2023/06/18 08:12:59;;;;;;;11.77;10.50;;;;;;;21.76;50.33;98076.50;4979660;28;20041;-77
2023/06/18 08:15:24;;;;;;;13.80;10.85;;;;;;;21.78;49.11;98075.06;4980247;28;20022;-77
2023/06/18 08:17:50;;;;;;;13.07;9.93;;;;;;;22.03;48.94;98071.56;4963944;28;20050;-77
2023/06/18 08:20:15;;;;;;;12.05;10.75;;;;;;;22.18;48.82;98078.50;4970287;28;20117;-77
2023/06/18 08:22:40;;;;;;;12.50;11.18;;;;;;;21.98;49.24;98082.69;4988084;28;20045;-77
2023/06/18 08:25:06;;;;;;;11.52;10.25;;;;;;;22.35;48.89;98083.19;4979247;28;20113;-77
2023/06/18 08:27:32;;;;;;;11.85;9.80;;;;;;;22.87;47.31;98084.75;4980268;28;20046;-77
2023/06/18 08:29:58;;;;;;;12.10;10.23;;;;;;;23.09;47.28;98081.81;4970752;28;20082;-77
2023/06/18 08:32:23;;;;;;;10.88;9.77;;;;;;;23.43;47.28;98080.91;4980393;28;20031;-77
2023/06/18 08:34:48;;;;;;;13.65;10.00;;;;;;;23.17;47.55;98083.72;4963439;28;20491;-77
2023/06/18 08:37:14;;;;;;;14.30;10.20;;;;;;;22.90;47.17;98070.38;4979756;28;20129;-77
2023/06/18 08:39:39;;;;;;;11.18;9.75;;;;;;;22.98;46.40;98077.81;4966716;28;20034;-77
2023/06/18 08:42:06;;;;;;;10.48;9.43;;;;;;;23.16;47.23;98081.28;4986119;28;20043;-77
2023/06/18 08:44:35;;;;;;;10.68;9.68;;;;;;;23.79;46.16;98072.13;4979137;28;20022;-77
2023/06/18 08:47:03;;;;;;;11.15;9.70;;;;;;;24.04;45.02;98076.63;4963588;28;20046;-77
2023/06/18 08:49:29;;;;;;;10.63;9.52;;;;;;;24.28;44.44;98074.06;4970125;28;20030;-77
2023/06/18 08:51:57;;;;;;;10.95;9.85;;;;;;;24.22;43.84;98072.66;4971338;28;20038;-77
2023/06/18 08:54:34;;;;;;;9.70;8.70;;;;;;;24.30;42.29;98071.78;4944180;28;20062;-77
2023/06/18 08:57:11;;;;;;;10.33;9.00;;;;;;;24.26;42.08;98064.53;4955642;28;20118;-77
2023/06/18 08:59:37;;;;;;;10.85;9.27;;;;;;;24.11;43.25;98057.69;4966993;28;20117;-77
2023/06/18 09:02:04;;;;;;;10.38;9.18;;;;;;;23.92;42.50;98065.59;4963770;28;20109;-77
2023/06/18 09:04:31;;;;;;;9.30;8.07;;;;;;;24.33;40.68;98054.59;4965773;28;20098;-77
2023/06/18 09:06:57;;;;;;;9.20;8.30;;;;;;;24.21;39.77;98060.03;4970057;28;20034;-77
2023/06/18 09:09:23;;;;;;;11.23;8.43;;;;;;;24.69;40.52;98063.00;4983639;28;20030;-77
2023/06/18 09:11:49;;;;;;;8.45;7.55;;;;;;;24.74;38.32;98059.22;4959751;28;20469;-77
2023/06/18 09:14:15;;;;;;;11.07;8.48;;;;;;;25.01;37.05;98050.38;4956126;28;20054;-77
2023/06/18 09:16:41;;;;;;;9.95;8.20;;;;;;;25.63;35.77;98041.81;4986115;28;20037;-77
2023/06/18 09:19:06;;;;;;;10.18;7.95;;;;;;;25.59;36.20;98040.09;4967019;28;20069;-77
2023/06/18 09:21:40;;;;;;;8.90;7.80;;;;;;;25.66;36.02;98040.31;4963163;28;20057;-77
2023/06/18 09:24:16;;;;;;;8.93;7.75;;;;;;;25.45;37.20;98040.44;4980626;28;20043;-76
2023/06/18 09:26:41;;;;;;;10.18;8.75;;;;;;;25.63;38.30;98038.25;4969826;28;20113;-76
2023/06/18 09:29:08;;;;;;;9.88;8.02;;;;;;;25.57;35.34;98034.94;4984867;28;20523;-77
2023/06/18 09:31:35;;;;;;;8.27;6.85;;;;;;;25.83;33.06;98035.38;4978342;28;20042;-76
2023/06/18 09:34:13;;;;;;;10.32;7.68;;;;;;;25.64;32.61;98035.16;4962619;28;20019;-77
2023/06/18 09:36:40;;;;;;;8.35;7.20;;;;;;;25.89;32.52;98039.47;4951407;28;20038;-77
2023/06/18 09:39:17;;;;;;;9.43;7.95;;;;;;;25.55;32.36;98034.47;4962869;28;20126;-77
2023/06/18 09:41:44;;;;;;;8.82;7.05;;;;;;;25.37;31.64;98028.34;4966630;28;20045;-77
2023/06/18 09:44:10;;;;;;;8.43;6.50;;;;;;;25.39;29.96;98030.78;4968584;28;20022;-77
2023/06/18 09:46:35;;;;;;;10.52;6.93;;;;;;;25.86;31.82;98033.84;4964879;28;20680;-77
2023/06/18 09:49:01;;;;;;;8.07;7.28;;;;;;;26.07;31.86;98035.28;4976263;28;20026;-77
2023/06/18 09:51:26;;;;;;;8.15;6.65;;;;;;;25.71;32.28;98032.63;4956332;28;20129;-77
2023/06/18 09:53:56;;;;;;;9.80;6.80;;;;;;;26.03;30.81;98045.44;4969854;28;20018;-77
2023/06/18 09:56:22;;;;;;;8.02;7.10;;;;;;;26.20;31.32;98038.06;4965397;28;20535;-77
2023/06/18 09:58:49;;;;;;;8.18;7.13;;;;;;;26.33;30.43;98040.41;4962758;28;20030;-78
2023/06/18 10:01:17;;;;;;;8.88;6.63;;;;;;;26.73;29.79;98035.63;4965750;28;20042;-77
2023/06/18 10:03:43;;;;;;;7.47;6.72;;;;;;;26.28;29.35;98034.34;4984369;28;20039;-77
2023/06/18 10:06:11;;;;;;;10.80;7.00;;;;;;;26.50;30.00;98039.31;4983189;28;20030;-77
2023/06/18 10:08:38;;;;;;;9.90;6.28;;;;;;;26.37;29.28;98032.25;4978387;28;20041;-77
2023/06/18 10:11:06;;;;;;;8.80;6.35;;;;;;;26.42;29.74;98040.28;4981042;28;20097;-77
2023/06/18 10:13:31;;;;;;;8.73;6.78;;;;;;;26.39;29.80;98038.22;4964758;28;20020;-77
2023/06/18 10:15:59;;;;;;;7.70;6.70;;;;;;;26.74;28.45;98041.97;4955530;28;20034;-77
2023/06/18 10:18:25;;;;;;;8.85;6.28;;;;;;;26.67;28.75;98041.78;4984693;28;20034;-77
2023/06/18 10:20:53;;;;;;;9.15;6.70;;;;;;;26.69;28.48;98040.28;4966770;28;20560;-77
2023/06/18 10:23:20;;;;;;;8.95;6.97;;;;;;;26.87;27.86;98032.47;4985927;28;20062;-77
2023/06/18 10:25:45;;;;;;;7.38;6.70;;;;;;;27.35;28.71;98029.38;4983579;28;20365;-77
2023/06/18 10:28:11;;;;;;;8.30;6.70;;;;;;;27.14;28.30;98033.59;4973868;28;20038;-77
2023/06/18 10:30:37;;;;;;;8.68;7.03;;;;;;;26.98;29.42;98035.53;4988113;28;20042;-77
2023/06/18 10:33:02;;;;;;;7.60;6.82;;;;;;;26.95;29.29;98031.53;4972874;28;20026;-77
2023/06/18 10:35:28;;;;;;;11.55;6.88;;;;;;;27.47;29.35;98036.03;4988772;28;20045;-77
2023/06/18 10:37:54;;;;;;;8.73;7.15;;;;;;;26.74;29.69;98031.72;4978112;28;20027;-77
2023/06/18 10:40:20;;;;;;;8.30;6.68;;;;;;;27.42;28.87;98027.97;4975540;28;20038;-77
2023/06/18 10:42:49;;;;;;;10.77;6.97;;;;;;;27.95;27.74;98018.94;4988566;28;20464;-77
2023/06/18 10:45:15;;;;;;;7.75;6.65;;;;;;;28.50;27.99;98018.56;4974870;28;20038;-77
2023/06/18 10:47:41;;;;;;;9.18;6.35;;;;;;;27.62;27.37;98018.56;4988573;28;20027;-77
2023/06/18 10:50:07;;;;;;;7.55;6.75;;;;;;;27.60;28.41;98018.13;4966629;28;20101;-77
2023/06/18 10:52:36;;;;;;;8.65;6.53;;;;;;;27.65;27.85;98013.13;4976526;28;20105;-76
2023/06/18 10:55:20;;;;;;;10.32;6.47;;;;;;;27.65;27.63;98004.03;4974491;28;20026;-77
2023/06/18 10:57:47;;;;;;;7.80;7.00;;;;;;;27.31;27.17;98008.31;4972704;28;20038;-77
2023/06/18 11:00:28;;;;;;;9.70;7.07;;;;;;;27.28;27.91;98007.06;4964884;28;20026;-77
2023/06/18 11:03:02;;;;;;;9.07;6.30;;;;;;;27.71;26.37;98008.09;4968646;28;20061;-77
2023/06/18 11:05:34;;;;;;;6.90;5.72;;;;;;;28.29;26.13;98000.69;4963560;28;20042;-77
2023/06/18 11:08:03;;;;;;;7.88;5.85;;;;;;;27.20;26.10;97999.78;4982295;28;20074;-77
2023/06/18 11:10:34;;;;;;;9.13;6.68;;;;;;;27.94;25.44;97993.22;4982122;28;20034;-77
2023/06/18 11:13:04;;;;;;;7.05;6.32;;;;;;;28.16;25.17;97991.75;4993441;28;20046;-77
2023/06/18 11:15:30;;;;;;;7.43;6.13;;;;;;;27.77;23.44;97981.78;4981980;28;20026;-77
2023/06/18 11:18:00;;;;;;;7.90;6.22;;;;;;;29.20;23.18;97980.28;5032151;22;20099;-77
2023/06/18 11:20:26;;;;;;;9.20;6.40;;;;;;;29.10;23.09;97974.53;5006074;28;20242;-76
2023/06/18 11:22:56;;;;;;;8.25;5.97;;;;;;;28.33;23.73;97979.41;5018848;28;20124;-77